createdAt,value
2018-07-07T00:00:50.202Z,14.97
2018-07-07T00:01:50.185Z,14.97
2018-07-07T00:02:50.176Z,15.02
2018-07-07T00:03:50.167Z,15.02
2018-07-07T00:04:50.153Z,15.00
2018-07-07T00:05:50.147Z,14.94
2018-07-07T00:06:50.139Z,14.99
2018-07-07T00:07:50.125Z,14.96
2018-07-07T00:08:50.119Z,14.97
2018-07-07T00:09:50.100Z,15.04
2018-07-07T00:10:50.087Z,15.00
2018-07-07T00:11:50.076Z,15.03
2018-07-07T00:12:50.075Z,15.03
2018-07-07T00:13:50.080Z,15.07
2018-07-07T00:14:50.050Z,15.07
2018-07-07T00:15:50.033Z,15.06
2018-07-07T00:16:50.023Z,15.09
2018-07-07T00:17:50.019Z,15.06
2018-07-07T00:18:50.055Z,15.06
2018-07-07T00:19:50.003Z,15.11
2018-07-07T00:20:49.986Z,15.11
2018-07-07T00:21:49.969Z,15.14
2018-07-07T00:22:49.956Z,15.11
2018-07-07T00:23:49.945Z,15.07
2018-07-07T00:24:49.939Z,15.11
2018-07-07T00:25:49.938Z,15.07
2018-07-07T00:26:49.920Z,15.09
2018-07-07T00:27:49.909Z,15.10
2018-07-07T00:28:49.898Z,15.02
2018-07-07T00:29:49.886Z,15.03
2018-07-07T00:30:49.869Z,15.00
2018-07-07T00:31:49.866Z,15.02
2018-07-07T00:32:49.852Z,15.02
2018-07-07T00:33:49.840Z,14.94
2018-07-07T00:34:49.828Z,14.99
2018-07-07T00:35:49.816Z,15.03
2018-07-07T00:36:49.808Z,15.00
2018-07-07T00:37:49.798Z,15.02
2018-07-07T00:38:49.788Z,14.96
2018-07-07T00:39:49.781Z,15.04
2018-07-07T00:40:49.765Z,15.14
2018-07-07T00:41:49.754Z,15.09
2018-07-07T00:42:49.739Z,15.14
2018-07-07T00:43:49.729Z,15.14
2018-07-07T00:44:49.769Z,15.10
2018-07-07T00:45:49.710Z,15.15
2018-07-07T00:46:49.713Z,15.17
2018-07-07T00:47:49.688Z,15.15
2018-07-07T00:48:49.675Z,15.25
2018-07-07T00:49:49.669Z,15.24
2018-07-07T00:50:49.675Z,15.25
2018-07-07T00:51:49.648Z,15.29
2018-07-07T00:52:49.636Z,15.35
2018-07-07T00:53:49.621Z,15.35
2018-07-07T00:54:49.612Z,15.39
2018-07-07T00:55:49.612Z,15.40
2018-07-07T00:56:49.589Z,15.51
2018-07-07T00:57:49.580Z,15.57
2018-07-07T00:58:49.573Z,15.46
2018-07-07T00:59:49.562Z,15.54
2018-07-07T01:00:49.551Z,15.57
2018-07-07T01:01:49.535Z,15.59
2018-07-07T01:02:49.524Z,15.52
2018-07-07T01:03:49.518Z,15.61
2018-07-07T01:04:49.518Z,15.57
2018-07-07T01:05:49.527Z,15.65
2018-07-07T01:06:49.487Z,15.62
2018-07-07T01:07:49.468Z,15.64
2018-07-07T01:08:49.459Z,15.65
2018-07-07T01:09:49.451Z,15.62
2018-07-07T01:10:49.442Z,15.62
2018-07-07T01:11:49.434Z,15.54
2018-07-07T01:12:49.419Z,15.61
2018-07-07T01:13:49.409Z,15.58
2018-07-07T01:14:49.408Z,15.61
2018-07-07T01:15:49.410Z,15.62
2018-07-07T01:16:49.372Z,15.57
2018-07-07T01:17:49.365Z,15.46
2018-07-07T01:18:49.358Z,15.67
2018-07-07T01:19:49.360Z,15.64
2018-07-07T01:20:49.331Z,15.61
2018-07-07T01:21:49.328Z,15.47
2018-07-07T01:22:49.306Z,15.55
2018-07-07T01:23:49.296Z,15.51
2018-07-07T01:24:49.290Z,15.51
2018-07-07T01:25:49.292Z,15.49
2018-07-07T01:26:49.272Z,15.47
2018-07-07T01:27:49.260Z,15.42
2018-07-07T01:28:49.246Z,15.52
2018-07-07T01:29:49.234Z,15.52
2018-07-07T01:30:49.220Z,15.51
2018-07-07T01:31:49.215Z,15.49
2018-07-07T01:32:49.226Z,15.44
2018-07-07T01:33:49.193Z,15.43
2018-07-07T01:34:49.187Z,15.29
2018-07-07T01:35:49.166Z,15.29
2018-07-07T01:36:49.177Z,15.24
2018-07-07T01:37:49.215Z,15.15
2018-07-07T01:38:49.143Z,15.09
2018-07-07T01:39:49.131Z,15.06
2018-07-07T01:40:49.117Z,15.00
2018-07-07T01:41:49.130Z,14.99
2018-07-07T01:42:49.092Z,14.86
2018-07-07T01:43:49.080Z,14.84
2018-07-07T01:44:49.072Z,14.65
2018-07-07T01:45:49.063Z,14.59
2018-07-07T01:46:49.055Z,14.60
2018-07-07T01:47:49.046Z,14.43
2018-07-07T01:48:49.032Z,14.41
2018-07-07T01:49:49.017Z,14.33
2018-07-07T01:50:49.004Z,14.28
2018-07-07T01:51:49.001Z,14.17
2018-07-07T01:52:48.994Z,14.04
2018-07-07T01:53:48.978Z,13.93
2018-07-07T01:54:48.962Z,13.83
2018-07-07T01:55:48.950Z,13.78
2018-07-07T01:56:48.941Z,13.71
2018-07-07T01:57:48.934Z,13.59
2018-07-07T01:58:48.924Z,13.57
2018-07-07T01:59:48.915Z,13.41
2018-07-07T02:00:48.904Z,13.33
2018-07-07T02:01:48.894Z,13.27
2018-07-07T02:02:48.884Z,13.22
2018-07-07T02:03:48.863Z,13.20
2018-07-07T02:04:48.857Z,13.13
2018-07-07T02:05:48.855Z,13.03
2018-07-07T02:06:48.837Z,13.11
2018-07-07T02:07:48.849Z,12.95
2018-07-07T02:08:48.814Z,13.01
2018-07-07T02:09:48.803Z,12.83
2018-07-07T02:10:48.821Z,12.80
2018-07-07T02:11:48.785Z,12.78
2018-07-07T02:12:48.773Z,12.70
2018-07-07T02:13:48.769Z,12.72
2018-07-07T02:14:48.750Z,12.75
2018-07-07T02:15:48.734Z,12.72
2018-07-07T02:16:48.725Z,12.60
2018-07-07T02:17:48.768Z,12.57
2018-07-07T02:18:48.754Z,12.67
2018-07-07T02:19:48.698Z,12.54
2018-07-07T02:20:48.690Z,12.46
2018-07-07T02:21:48.700Z,12.47
2018-07-07T02:22:48.670Z,12.35
2018-07-07T02:23:48.680Z,12.32
2018-07-07T02:24:48.659Z,12.29
2018-07-07T02:25:48.628Z,12.31
2018-07-07T02:26:48.615Z,12.27
2018-07-07T02:27:48.604Z,12.25
2018-07-07T02:28:48.601Z,12.29
2018-07-07T02:29:48.587Z,12.32
2018-07-07T02:30:48.584Z,12.28
2018-07-07T02:31:48.583Z,12.37
2018-07-07T02:32:48.555Z,12.27
2018-07-07T02:33:48.547Z,12.25
2018-07-07T02:34:48.532Z,12.32
2018-07-07T02:35:48.517Z,12.36
2018-07-07T02:36:48.509Z,12.32
2018-07-07T02:37:48.499Z,12.28
2018-07-07T02:38:48.493Z,12.36
2018-07-07T02:39:48.473Z,12.37
2018-07-07T02:40:48.465Z,12.36
2018-07-07T02:41:48.457Z,12.29
2018-07-07T02:42:48.448Z,12.37
2018-07-07T02:43:48.457Z,12.43
2018-07-07T02:44:48.426Z,12.47
2018-07-07T02:45:48.412Z,12.46
2018-07-07T02:46:48.398Z,12.47
2018-07-07T02:47:48.388Z,12.47
2018-07-07T02:48:48.382Z,12.49
2018-07-07T02:49:48.370Z,12.50
2018-07-07T02:50:48.361Z,12.46
2018-07-07T02:51:48.350Z,12.45
2018-07-07T02:52:48.338Z,12.36
2018-07-07T02:53:48.326Z,12.43
2018-07-07T02:54:48.311Z,12.32
2018-07-07T02:55:48.307Z,12.40
2018-07-07T02:56:48.294Z,12.36
2018-07-07T02:57:48.281Z,12.37
2018-07-07T02:58:48.299Z,12.37
2018-07-07T02:59:48.256Z,12.42
2018-07-07T03:00:48.296Z,12.42
2018-07-07T03:01:48.240Z,12.40
2018-07-07T03:02:48.237Z,12.40
2018-07-07T03:03:48.221Z,12.36
2018-07-07T03:04:48.211Z,12.36
2018-07-07T03:05:48.198Z,12.29
2018-07-07T03:06:48.182Z,12.36
2018-07-07T03:07:48.220Z,12.35
2018-07-07T03:08:48.163Z,12.31
2018-07-07T03:09:48.228Z,12.39
2018-07-07T03:10:48.146Z,12.37
2018-07-07T03:11:48.132Z,12.42
2018-07-07T03:12:48.118Z,12.36
2018-07-07T03:13:48.112Z,12.46
2018-07-07T03:14:48.122Z,12.53
2018-07-07T03:15:48.122Z,12.46
2018-07-07T03:16:48.077Z,12.49
2018-07-07T03:17:48.071Z,12.57
2018-07-07T03:18:48.051Z,12.62
2018-07-07T03:19:48.040Z,12.64
2018-07-07T03:20:48.033Z,12.62
2018-07-07T03:21:48.024Z,12.60
2018-07-07T03:22:48.015Z,12.68
2018-07-07T03:23:48.003Z,12.70
2018-07-07T03:24:47.991Z,12.70
2018-07-07T03:25:47.997Z,12.70
2018-07-07T03:26:47.967Z,12.80
2018-07-07T03:27:47.961Z,12.79
2018-07-07T03:28:47.947Z,12.79
2018-07-07T03:29:47.935Z,12.82
2018-07-07T03:30:47.954Z,12.80
2018-07-07T03:31:47.911Z,12.82
2018-07-07T03:32:47.903Z,12.75
2018-07-07T03:33:47.893Z,12.76
2018-07-07T03:34:47.891Z,12.68
2018-07-07T03:35:47.890Z,12.76
2018-07-07T03:36:47.865Z,12.78
2018-07-07T03:37:47.848Z,12.76
2018-07-07T03:38:47.839Z,12.76
2018-07-07T03:39:47.826Z,12.80
2018-07-07T03:40:47.817Z,12.83
2018-07-07T03:41:47.809Z,12.82
2018-07-07T03:42:47.800Z,12.86
2018-07-07T03:43:47.783Z,12.80
2018-07-07T03:44:47.773Z,12.85
2018-07-07T03:45:47.765Z,12.85
2018-07-07T03:46:47.764Z,12.73
2018-07-07T03:47:47.761Z,12.68
2018-07-07T03:48:47.744Z,12.75
2018-07-07T03:49:47.720Z,12.78
2018-07-07T03:50:47.706Z,12.72
2018-07-07T03:51:47.697Z,12.65
2018-07-07T03:52:47.688Z,12.75
2018-07-07T03:53:47.682Z,12.70
2018-07-07T03:54:47.697Z,12.73
2018-07-07T03:55:47.664Z,12.70
2018-07-07T03:56:47.648Z,12.70
2018-07-07T03:57:47.634Z,12.82
2018-07-07T03:58:47.688Z,12.67
2018-07-07T03:59:47.629Z,12.75
2018-07-07T04:00:47.628Z,12.76
2018-07-07T04:01:47.638Z,12.80
2018-07-07T04:02:47.577Z,12.80
2018-07-07T04:03:47.567Z,12.85
2018-07-07T04:04:47.559Z,12.86
2018-07-07T04:05:47.576Z,12.83
2018-07-07T04:06:47.546Z,12.83
2018-07-07T04:07:47.533Z,12.83
2018-07-07T04:08:47.521Z,12.87
2018-07-07T04:09:47.504Z,12.91
2018-07-07T04:10:47.536Z,12.86
2018-07-07T04:11:47.480Z,12.91
2018-07-07T04:12:47.474Z,12.90
2018-07-07T04:13:47.464Z,12.93
2018-07-07T04:14:47.456Z,12.86
2018-07-07T04:15:47.440Z,12.93
2018-07-07T04:16:47.448Z,12.95
2018-07-07T04:17:47.430Z,13.04
2018-07-07T04:18:47.412Z,13.05
2018-07-07T04:19:47.402Z,13.01
2018-07-07T04:20:47.388Z,13.18
2018-07-07T04:21:47.374Z,13.05
2018-07-07T04:22:47.380Z,13.12
2018-07-07T04:23:47.358Z,13.16
2018-07-07T04:24:47.346Z,13.20
2018-07-07T04:25:47.333Z,13.16
2018-07-07T04:26:47.320Z,13.20
2018-07-07T04:27:47.334Z,13.22
2018-07-07T04:28:47.298Z,13.22
2018-07-07T04:29:47.290Z,13.25
2018-07-07T04:30:47.287Z,13.35
2018-07-07T04:31:47.264Z,13.27
2018-07-07T04:32:47.259Z,13.27
2018-07-07T04:33:47.252Z,13.13
2018-07-07T04:34:47.239Z,13.18
2018-07-07T04:35:47.231Z,13.18
2018-07-07T04:36:47.216Z,13.12
2018-07-07T04:37:47.202Z,13.13
2018-07-07T04:38:47.208Z,13.03
2018-07-07T04:39:47.178Z,13.01
2018-07-07T04:40:47.169Z,13.00
2018-07-07T04:41:47.165Z,12.87
2018-07-07T04:42:47.152Z,12.97
2018-07-07T04:43:47.194Z,12.94
2018-07-07T04:44:47.172Z,12.87
2018-07-07T04:45:47.131Z,12.83
2018-07-07T04:46:47.106Z,12.80
2018-07-07T04:47:47.116Z,12.82
2018-07-07T04:48:47.106Z,12.76
2018-07-07T04:49:47.078Z,12.82
2018-07-07T04:50:47.063Z,12.73
2018-07-07T04:51:47.048Z,12.75
2018-07-07T04:52:47.040Z,12.62
2018-07-07T04:53:47.033Z,12.64
2018-07-07T04:54:47.025Z,12.62
2018-07-07T04:55:47.012Z,12.42
2018-07-07T04:56:47.000Z,12.53
2018-07-07T04:57:46.985Z,12.53
2018-07-07T04:58:46.975Z,12.49
2018-07-07T04:59:46.964Z,12.45
2018-07-07T05:00:46.953Z,12.43
2018-07-07T05:01:46.945Z,12.55
2018-07-07T05:02:46.937Z,12.50
2018-07-07T05:03:46.920Z,12.47
2018-07-07T05:04:46.914Z,12.43
2018-07-07T05:05:46.923Z,12.64
2018-07-07T05:06:46.893Z,12.65
2018-07-07T05:07:46.883Z,12.70
2018-07-07T05:08:46.870Z,12.85
2018-07-07T05:09:46.882Z,12.85
2018-07-07T05:10:46.844Z,12.91
2018-07-07T05:11:46.849Z,12.97
2018-07-07T05:12:46.851Z,13.11
2018-07-07T05:13:46.832Z,13.05
2018-07-07T05:14:46.822Z,13.09
2018-07-07T05:15:46.814Z,13.16
2018-07-07T05:16:46.784Z,13.30
2018-07-07T05:17:46.785Z,13.30
2018-07-07T05:18:46.770Z,13.33
2018-07-07T05:19:46.769Z,13.49
2018-07-07T05:20:46.756Z,13.62
2018-07-07T05:21:46.730Z,13.68
2018-07-07T05:22:46.715Z,13.67
2018-07-07T05:23:46.704Z,13.70
2018-07-07T05:24:46.696Z,13.75
2018-07-07T05:25:46.694Z,13.86
2018-07-07T05:26:46.682Z,13.86
2018-07-07T05:27:46.668Z,13.83
2018-07-07T05:28:46.656Z,13.90
2018-07-07T05:29:46.643Z,13.93
2018-07-07T05:30:46.643Z,14.05
2018-07-07T05:31:46.681Z,14.14
2018-07-07T05:32:46.627Z,14.18
2018-07-07T05:33:46.608Z,14.22
2018-07-07T05:34:46.612Z,14.28
2018-07-07T05:35:46.654Z,14.40
2018-07-07T05:36:46.565Z,14.40
2018-07-07T05:37:46.571Z,14.37
2018-07-07T05:38:46.549Z,14.43
2018-07-07T05:39:46.545Z,14.47
2018-07-07T05:40:46.526Z,14.50
2018-07-07T05:41:46.514Z,14.58
2018-07-07T05:42:46.498Z,14.58
2018-07-07T05:43:46.489Z,14.62
2018-07-07T05:44:46.480Z,14.70
2018-07-07T05:45:46.474Z,14.73
2018-07-07T05:46:46.482Z,14.85
2018-07-07T05:47:46.463Z,14.82
2018-07-07T05:48:46.439Z,14.88
2018-07-07T05:49:46.425Z,14.96
2018-07-07T05:50:46.411Z,15.06
2018-07-07T05:51:46.405Z,15.14
2018-07-07T05:52:46.394Z,15.22
2018-07-07T05:53:46.382Z,15.28
2018-07-07T05:54:46.367Z,15.35
2018-07-07T05:55:46.358Z,15.37
2018-07-07T05:56:46.372Z,15.33
2018-07-07T05:57:46.340Z,15.29
2018-07-07T05:58:46.332Z,15.33
2018-07-07T05:59:46.321Z,15.36
2018-07-07T06:00:46.309Z,15.35
2018-07-07T06:01:46.345Z,15.33
2018-07-07T06:02:46.282Z,15.31
2018-07-07T06:03:46.273Z,15.27
2018-07-07T06:04:46.262Z,15.40
2018-07-07T06:05:46.254Z,15.39
2018-07-07T06:06:46.244Z,15.49
2018-07-07T06:07:46.231Z,15.47
2018-07-07T06:08:46.219Z,15.62
2018-07-07T06:09:46.211Z,15.75
2018-07-07T06:10:46.201Z,15.84
2018-07-07T06:11:46.193Z,15.98
2018-07-07T06:12:46.183Z,16.23
2018-07-07T06:13:46.166Z,16.36
2018-07-07T06:14:46.152Z,16.51
2018-07-07T06:15:46.142Z,16.68
2018-07-07T06:16:46.146Z,16.76
2018-07-07T06:17:46.170Z,16.79
2018-07-07T06:18:46.124Z,16.86
2018-07-07T06:19:46.117Z,16.83
2018-07-07T06:20:46.112Z,16.81
2018-07-07T06:21:46.084Z,16.71
2018-07-07T06:22:46.096Z,16.72
2018-07-07T06:23:46.101Z,16.72
2018-07-07T06:24:46.053Z,16.66
2018-07-07T06:25:46.037Z,16.65
2018-07-07T06:26:46.071Z,16.66
2018-07-07T06:27:46.013Z,16.58
2018-07-07T06:28:46.007Z,16.53
2018-07-07T06:29:45.996Z,16.50
2018-07-07T06:30:46.011Z,16.51
2018-07-07T06:31:45.979Z,16.47
2018-07-07T06:32:45.966Z,16.51
2018-07-07T06:33:45.953Z,16.43
2018-07-07T06:34:45.941Z,16.46
2018-07-07T06:35:45.925Z,16.39
2018-07-07T06:36:45.917Z,16.43
2018-07-07T06:37:45.911Z,16.33
2018-07-07T06:38:45.928Z,16.36
2018-07-07T06:39:45.882Z,16.38
2018-07-07T06:40:45.872Z,16.35
2018-07-07T06:41:45.869Z,16.33
2018-07-07T06:42:45.856Z,16.33
2018-07-07T06:43:45.919Z,16.33
2018-07-07T06:44:45.835Z,16.31
2018-07-07T06:45:45.820Z,16.32
2018-07-07T06:46:45.806Z,16.29
2018-07-07T06:47:45.796Z,16.41
2018-07-07T06:48:45.787Z,16.36
2018-07-07T06:49:45.795Z,16.31
2018-07-07T06:50:45.771Z,16.46
2018-07-07T06:51:45.760Z,16.41
2018-07-07T06:52:45.748Z,16.46
2018-07-07T06:53:45.755Z,16.50
2018-07-07T06:54:45.724Z,16.49
2018-07-07T06:55:45.717Z,16.50
2018-07-07T06:56:45.705Z,16.69
2018-07-07T06:57:45.692Z,16.66
2018-07-07T06:58:45.679Z,16.81
2018-07-07T06:59:45.674Z,16.76
2018-07-07T07:00:45.666Z,16.78
2018-07-07T07:01:45.654Z,16.69
2018-07-07T07:02:45.653Z,16.76
2018-07-07T07:03:45.635Z,16.78
2018-07-07T07:04:45.631Z,16.79
2018-07-07T07:05:45.627Z,16.84
2018-07-07T07:06:45.609Z,16.84
2018-07-07T07:07:45.629Z,16.87
2018-07-07T07:08:45.622Z,16.86
2018-07-07T07:09:45.623Z,16.90
2018-07-07T07:10:45.573Z,16.97
2018-07-07T07:11:45.546Z,16.91
2018-07-07T07:12:45.532Z,16.94
2018-07-07T07:13:45.524Z,16.97
2018-07-07T07:14:45.544Z,16.99
2018-07-07T07:15:45.620Z,17.04
2018-07-07T07:16:45.491Z,17.04
2018-07-07T07:17:45.477Z,17.12
2018-07-07T07:18:45.466Z,17.24
2018-07-07T07:19:45.455Z,17.42
2018-07-07T07:20:45.453Z,17.26
2018-07-07T07:21:45.437Z,17.31
2018-07-07T07:22:45.432Z,17.36
2018-07-07T07:23:45.426Z,17.45
2018-07-07T07:24:45.404Z,17.45
2018-07-07T07:25:45.393Z,17.51
2018-07-07T07:26:45.378Z,17.59
2018-07-07T07:27:45.373Z,17.85
2018-07-07T07:28:45.361Z,17.87
2018-07-07T07:29:45.346Z,17.87
2018-07-07T07:30:45.358Z,17.92
2018-07-07T07:31:45.322Z,17.94
2018-07-07T07:32:45.314Z,17.92
2018-07-07T07:33:45.305Z,17.87
2018-07-07T07:34:45.303Z,17.85
2018-07-07T07:35:45.285Z,17.82
2018-07-07T07:36:45.288Z,17.86
2018-07-07T07:37:45.259Z,17.92
2018-07-07T07:38:45.245Z,17.90
2018-07-07T07:39:45.234Z,18.01
2018-07-07T07:40:45.225Z,18.00
2018-07-07T07:41:45.249Z,18.04
2018-07-07T07:42:45.212Z,18.11
2018-07-07T07:43:45.192Z,18.26
2018-07-07T07:44:45.191Z,18.31
2018-07-07T07:45:45.199Z,18.40
2018-07-07T07:46:45.181Z,18.44
2018-07-07T07:47:45.204Z,18.50
2018-07-07T07:48:45.146Z,18.63
2018-07-07T07:49:45.128Z,18.58
2018-07-07T07:50:45.134Z,18.68
2018-07-07T07:51:45.107Z,18.73
2018-07-07T07:52:45.118Z,18.73
2018-07-07T07:53:45.092Z,18.78
2018-07-07T07:54:45.089Z,18.92
2018-07-07T07:55:45.082Z,18.90
2018-07-07T07:56:45.130Z,18.89
2018-07-07T07:57:45.042Z,18.86
2018-07-07T07:58:45.039Z,19.09
2018-07-07T07:59:45.033Z,19.12
2018-07-07T08:00:45.014Z,19.16
2018-07-07T08:01:44.998Z,19.14
2018-07-07T08:02:44.992Z,19.19
2018-07-07T08:03:44.997Z,19.12
2018-07-07T08:04:44.979Z,19.21
2018-07-07T08:05:44.965Z,19.16
2018-07-07T08:06:44.949Z,19.19
2018-07-07T08:07:44.958Z,19.19
2018-07-07T08:08:44.926Z,19.15
2018-07-07T08:09:44.913Z,19.22
2018-07-07T08:10:44.900Z,19.24
2018-07-07T08:11:44.889Z,19.33
2018-07-07T08:12:44.900Z,19.24
2018-07-07T08:13:44.874Z,19.33
2018-07-07T08:14:44.866Z,19.40
2018-07-07T08:15:44.849Z,19.37
2018-07-07T08:16:44.839Z,19.39
2018-07-07T08:17:44.862Z,19.31
2018-07-07T08:18:44.821Z,19.40
2018-07-07T08:19:44.812Z,19.52
2018-07-07T08:20:44.800Z,19.52
2018-07-07T08:21:44.786Z,19.66
2018-07-07T08:22:44.824Z,19.81
2018-07-07T08:23:44.765Z,19.95
2018-07-07T08:24:44.753Z,19.92
2018-07-07T08:25:44.743Z,19.99
2018-07-07T08:26:44.736Z,20.13
2018-07-07T08:27:44.725Z,20.31
2018-07-07T08:28:44.724Z,20.47
2018-07-07T08:29:44.699Z,20.59
2018-07-07T08:30:44.690Z,20.67
2018-07-07T08:31:44.683Z,20.72
2018-07-07T08:32:44.676Z,21.00
2018-07-07T08:33:44.680Z,21.12
2018-07-07T08:34:44.662Z,21.36
2018-07-07T08:35:44.636Z,21.62
2018-07-07T08:36:44.630Z,21.96
2018-07-07T08:37:44.618Z,22.15
2018-07-07T08:38:44.636Z,22.30
2018-07-07T08:39:44.619Z,22.33
2018-07-07T08:40:44.592Z,22.32
2018-07-07T08:41:44.595Z,22.35
2018-07-07T08:42:44.612Z,22.60
2018-07-07T08:43:44.598Z,22.80
2018-07-07T08:44:44.544Z,23.00
2018-07-07T08:45:44.539Z,23.23
2018-07-07T08:46:44.525Z,23.32
2018-07-07T08:47:44.513Z,23.23
2018-07-07T08:48:44.503Z,23.39
2018-07-07T08:49:44.520Z,23.48
2018-07-07T08:50:44.488Z,23.55
2018-07-07T08:51:44.475Z,23.73
2018-07-07T08:52:44.473Z,23.88
2018-07-07T08:53:44.454Z,23.96
2018-07-07T08:54:44.470Z,24.02
2018-07-07T08:55:44.430Z,24.05
2018-07-07T08:56:44.420Z,24.01
2018-07-07T08:57:44.417Z,23.99
2018-07-07T08:58:44.406Z,24.02
2018-07-07T08:59:44.396Z,24.42
2018-07-07T09:00:44.400Z,24.45
2018-07-07T09:01:44.371Z,24.50
2018-07-07T09:02:44.369Z,24.55
2018-07-07T09:03:44.357Z,24.74
2018-07-07T09:04:44.348Z,24.95
2018-07-07T09:05:44.333Z,25.21
2018-07-07T09:06:44.326Z,25.28
2018-07-07T09:07:44.326Z,25.36
2018-07-07T09:08:44.302Z,25.48
2018-07-07T09:09:44.459Z,25.68
2018-07-07T09:10:44.323Z,25.55
2018-07-07T09:11:44.276Z,25.77
2018-07-07T09:12:44.271Z,25.73
2018-07-07T09:13:44.255Z,25.78
2018-07-07T09:14:44.250Z,25.81
2018-07-07T09:15:44.237Z,25.93
2018-07-07T09:16:44.223Z,26.02
2018-07-07T09:17:44.224Z,26.02
2018-07-07T09:18:44.274Z,25.84
2018-07-07T09:19:44.196Z,25.78
2018-07-07T09:20:44.203Z,25.96
2018-07-07T09:21:44.180Z,26.19
2018-07-07T09:22:44.170Z,26.41
2018-07-07T09:23:44.157Z,26.41
2018-07-07T09:24:44.155Z,26.29
2018-07-07T09:25:44.162Z,26.15
2018-07-07T09:26:44.130Z,26.18
2018-07-07T09:27:44.126Z,26.38
2018-07-07T09:28:45.190Z,26.29
2018-07-07T09:29:44.148Z,26.29
2018-07-07T09:30:44.111Z,26.53
2018-07-07T09:31:44.181Z,26.74
2018-07-07T09:32:44.075Z,26.85
2018-07-07T09:33:44.091Z,26.81
2018-07-07T09:34:44.053Z,26.89
2018-07-07T09:35:44.376Z,26.93
2018-07-07T09:36:44.050Z,26.81
2018-07-07T09:37:44.022Z,26.85
2018-07-07T09:38:44.051Z,26.97
2018-07-07T09:39:44.008Z,27.18
2018-07-07T09:40:43.997Z,27.44
2018-07-07T09:41:44.013Z,27.68
2018-07-07T09:42:43.979Z,27.71
2018-07-07T09:43:43.985Z,27.93
2018-07-07T09:44:43.961Z,28.10
2018-07-07T09:45:43.947Z,28.23
2018-07-07T09:46:43.958Z,28.23
2018-07-07T09:47:43.938Z,28.02
2018-07-07T09:48:43.920Z,27.87
2018-07-07T09:49:43.914Z,27.82
2018-07-07T09:50:43.900Z,28.02
2018-07-07T09:51:43.919Z,28.11
2018-07-07T09:52:43.874Z,28.29
2018-07-07T09:53:43.875Z,28.39
2018-07-07T09:54:43.942Z,28.54
2018-07-07T09:55:43.848Z,28.63
2018-07-07T09:56:43.841Z,28.48
2018-07-07T09:57:43.835Z,28.30
2018-07-07T09:58:43.821Z,28.23
2018-07-07T09:59:43.804Z,28.08
2018-07-07T10:00:43.798Z,27.80
2018-07-07T10:01:43.790Z,27.42
2018-07-07T10:02:43.801Z,27.22
2018-07-07T10:03:43.765Z,27.08
2018-07-07T10:04:43.759Z,26.90
2018-07-07T10:05:43.739Z,26.73
2018-07-07T10:06:43.732Z,26.70
2018-07-07T10:07:43.794Z,26.34
2018-07-07T10:08:43.716Z,26.09
2018-07-07T10:09:43.703Z,25.90
2018-07-07T10:10:43.689Z,25.77
2018-07-07T10:11:43.684Z,25.47
2018-07-07T10:12:43.667Z,25.40
2018-07-07T10:13:43.666Z,25.07
2018-07-07T10:14:43.649Z,24.98
2018-07-07T10:15:43.639Z,24.70
2018-07-07T10:16:43.630Z,24.54
2018-07-07T10:17:43.617Z,24.30
2018-07-07T10:18:43.634Z,24.23
2018-07-07T10:19:43.600Z,24.26
2018-07-07T10:20:43.611Z,24.30
2018-07-07T10:21:44.597Z,24.29
2018-07-07T10:22:43.595Z,24.38
2018-07-07T10:23:43.595Z,24.28
2018-07-07T10:24:43.534Z,24.28
2018-07-07T10:25:43.532Z,24.35
2018-07-07T10:26:43.519Z,24.21
2018-07-07T10:27:43.509Z,24.26
2018-07-07T10:28:43.529Z,24.36
2018-07-07T10:29:43.481Z,24.33
2018-07-07T10:30:43.473Z,24.36
2018-07-07T10:31:43.461Z,24.40
2018-07-07T10:32:43.451Z,24.35
2018-07-07T10:33:43.445Z,24.47
2018-07-07T10:34:43.436Z,24.53
2018-07-07T10:35:43.422Z,24.61
2018-07-07T10:36:43.414Z,24.66
2018-07-07T10:37:43.396Z,24.58
2018-07-07T10:38:43.415Z,24.57
2018-07-07T10:39:43.381Z,24.47
2018-07-07T10:40:43.373Z,24.53
2018-07-07T10:41:43.358Z,24.55
2018-07-07T10:42:43.352Z,24.61
2018-07-07T10:43:44.135Z,24.58
2018-07-07T10:44:43.376Z,24.65
2018-07-07T10:45:43.367Z,24.74
2018-07-07T10:46:43.329Z,24.78
2018-07-07T10:47:43.306Z,24.93
2018-07-07T10:48:43.320Z,25.01
2018-07-07T10:49:43.278Z,25.26
2018-07-07T10:50:43.278Z,25.48
2018-07-07T10:51:43.259Z,25.65
2018-07-07T10:52:43.247Z,25.95
2018-07-07T10:53:43.243Z,26.28
2018-07-07T10:54:43.233Z,26.60
2018-07-07T10:55:43.220Z,27.14
2018-07-07T10:56:43.207Z,27.42
2018-07-07T10:57:43.206Z,27.70
2018-07-07T10:58:43.195Z,27.87
2018-07-07T10:59:43.184Z,28.05
2018-07-07T11:00:43.175Z,28.04
2018-07-07T11:01:43.162Z,27.48
2018-07-07T11:02:43.219Z,27.37
2018-07-07T11:03:43.136Z,27.07
2018-07-07T11:04:43.148Z,26.93
2018-07-07T11:05:43.125Z,26.44
2018-07-07T11:06:43.107Z,26.36
2018-07-07T11:07:43.096Z,26.26
2018-07-07T11:08:43.100Z,26.03
2018-07-07T11:09:43.098Z,25.87
2018-07-07T11:10:43.062Z,25.87
2018-07-07T11:11:43.102Z,25.73
2018-07-07T11:12:43.049Z,25.83
2018-07-07T11:13:43.031Z,25.84
2018-07-07T11:14:43.050Z,25.87
2018-07-07T11:15:43.012Z,25.87
2018-07-07T11:16:43.002Z,25.87
2018-07-07T11:17:42.996Z,25.93
2018-07-07T11:18:42.987Z,26.07
2018-07-07T11:19:42.975Z,26.07
2018-07-07T11:20:42.973Z,26.21
2018-07-07T11:21:42.952Z,26.15
2018-07-07T11:22:42.944Z,26.26
2018-07-07T11:23:42.936Z,26.40
2018-07-07T11:24:42.928Z,26.58
2018-07-07T11:25:42.948Z,26.90
2018-07-07T11:26:42.913Z,27.35
2018-07-07T11:27:42.902Z,27.95
2018-07-07T11:28:42.901Z,28.59
2018-07-07T11:29:42.937Z,29.20
2018-07-07T11:30:42.900Z,29.68
2018-07-07T11:31:42.889Z,30.06
2018-07-07T11:32:42.862Z,30.35
2018-07-07T11:33:42.855Z,30.81
2018-07-07T11:34:42.883Z,30.72
2018-07-07T11:35:42.875Z,30.51
2018-07-07T11:36:43.049Z,30.70
2018-07-07T11:37:42.845Z,30.97
2018-07-07T11:38:42.822Z,31.29
2018-07-07T11:39:42.802Z,31.93
2018-07-07T11:40:42.817Z,32.36
2018-07-07T11:41:42.792Z,32.43
2018-07-07T11:42:42.780Z,32.40
2018-07-07T11:43:42.768Z,32.09
2018-07-07T11:44:42.764Z,32.21
2018-07-07T11:45:42.750Z,32.73
2018-07-07T11:46:42.748Z,33.09
2018-07-07T11:47:42.744Z,33.28
2018-07-07T11:48:42.728Z,33.52
2018-07-07T11:49:42.723Z,33.53
2018-07-07T11:50:42.724Z,33.87
2018-07-07T11:51:42.730Z,33.94
2018-07-07T11:52:42.699Z,34.06
2018-07-07T11:53:42.683Z,34.08
2018-07-07T11:54:42.680Z,33.99
2018-07-07T11:55:42.681Z,33.73
2018-07-07T11:56:42.660Z,34.01
2018-07-07T11:57:42.662Z,34.51
2018-07-07T11:58:42.651Z,34.85
2018-07-07T11:59:42.640Z,34.70
2018-07-07T12:00:42.631Z,35.02
2018-07-07T12:01:42.688Z,35.07
2018-07-07T12:02:42.660Z,34.89
2018-07-07T12:03:42.613Z,35.30
2018-07-07T12:04:42.867Z,35.73
2018-07-07T12:05:42.594Z,35.41
2018-07-07T12:06:42.672Z,35.53
2018-07-07T12:07:42.582Z,35.34
2018-07-07T12:08:42.676Z,35.39
2018-07-07T12:09:42.576Z,35.45
2018-07-07T12:10:42.566Z,35.49
2018-07-07T12:11:42.627Z,35.26
2018-07-07T12:12:42.549Z,35.08
2018-07-07T12:13:42.538Z,34.86
2018-07-07T12:14:42.588Z,35.15
2018-07-07T12:15:42.527Z,35.18
2018-07-07T12:16:42.525Z,34.78
2018-07-07T12:17:42.508Z,34.52
2018-07-07T12:18:42.505Z,34.61
2018-07-07T12:19:42.495Z,35.05
2018-07-07T12:20:42.521Z,35.58
2018-07-07T12:21:42.484Z,35.89
2018-07-07T12:22:42.474Z,34.96
2018-07-07T12:23:42.511Z,34.70
2018-07-07T12:24:42.481Z,34.88
2018-07-07T12:25:42.454Z,34.92
2018-07-07T12:26:42.488Z,34.61
2018-07-07T12:27:42.436Z,34.77
2018-07-07T12:28:42.427Z,35.15
2018-07-07T12:29:42.430Z,35.55
2018-07-07T12:30:42.416Z,35.29
2018-07-07T12:31:42.407Z,34.93
2018-07-07T12:32:42.413Z,34.60
2018-07-07T12:33:42.397Z,34.70
2018-07-07T12:34:42.389Z,34.39
2018-07-07T12:35:42.384Z,34.73
2018-07-07T12:36:42.405Z,35.26
2018-07-07T12:37:42.365Z,35.63
2018-07-07T12:38:42.371Z,35.97
2018-07-07T12:39:42.378Z,36.43
2018-07-07T12:40:42.344Z,36.59
2018-07-07T12:41:42.341Z,37.11
2018-07-07T12:42:42.327Z,36.67
2018-07-07T12:43:42.484Z,37.02
2018-07-07T12:44:42.375Z,37.44
2018-07-07T12:45:42.311Z,37.20
2018-07-07T12:46:42.319Z,36.86
2018-07-07T12:47:42.309Z,37.18
2018-07-07T12:48:42.286Z,37.33
2018-07-07T12:49:42.278Z,37.70
2018-07-07T12:50:42.293Z,37.70
2018-07-07T12:51:42.260Z,37.82
2018-07-07T12:52:42.251Z,37.51